Topinabee, MI

8:50 AM EST on December 22, 2014 (GMT -0500)
Northwest Burt Lake | Change Station
CLOSE
Current Station
Personal Weather Station
Location: Brutus, MI
Elevation: 626 ft
Nearby Weather Stations

Elev 626 ft 45.51 °N, 84.70 °W | Updated 5 seconds ago

Overcast
Overcast
29.8 °F
Feels Like 30 °F
N
3.0
Wind Variable Wind from SE

Today
High -- | Low -- °F
--% Chance of Precip.
Yesterday
High -- | Low -- °F
Precip. -- in
8:15 AM 4:58 PM
New Moon, 0% visible
Pressure 30.09 in
Visibility 7.0 miles
Clouds Mostly Cloudy 8000 ft
Overcast 9000 ft
Windchill 30 °F
Dew Point 28 °F
Humidity 91%
Rainfall 0.00 in
Snow Depth Not available.
UV 0 out of 12
Pollen .10 out of 12
Air Quality Not available.
Flu Activity Not available.
METAR KPLN 221254Z AUTO 14009KT 7SM BKN080 OVC090 M02/M04 A3006 RMK AO2 SLP188 T10171039

More Conditions Fewer Conditions

Pressure 30.09 in
Visibility 7.0 miles
Clouds Mostly Cloudy 8000 ft
Overcast 9000 ft
Windchill 30 °F
Dew Point 28 °F
Humidity 91%
Rainfall 0.00 in
Snow Depth Not available.
UV 0 out of 12
Pollen .10 out of 12
Air Quality Not available.
Flu Activity Not available.
METAR KPLN 221254Z AUTO 14009KT 7SM BKN080 OVC090 M02/M04 A3006 RMK AO2 SLP188 T10171039

More Conditions Fewer Conditions

Nowcast | as of 8:00 am EST on December 22, 2014

At 9 am...mostly cloudy. Temperature 31. Southeast winds 8 mph. At 11 am...partly cloudy. Temperature 33. Southeast winds 10 mph. At 1 PM...partly cloudy. Temperature 35. Southeast winds 10 mph. At 3 PM...partly cloudy. Temperature 35. Southeast winds 9 mph.

×

10-Day Weather Forecast

Almanac

Astronomy

Dec. 22, 2014 Rise Set
Actual Time
Civil Twilight
Nautical Twilight
Astronomical Twilight
Moon
Length of Visible Light
Length of Day
Tomorrow will be .
, % of the Moon is Illuminated

Today's Extremes

State Highs State Lows

Community

WunderPhotos

Upload Photos

1,779,599 photos uploaded!

WunderBlogs® & News

Nearby

Air Quality

  Air Quality AQ Index Pollutant
Not available.

Snow Depth

Station Depth Elevation

Earthquake Activity

City Distance Mag. Time & Date
Minimum magnitude displayed is 2.5.

Coastal Water Temperatures

Place Temperature

Nearby Weather Stations